sensor_id;sensor_type;location;lat;lon;timestamp;temperature;humidity
14798;DHT22;7490;63.708;20.368;2023-05-07T00:00:37;5.60;81.10
14798;DHT22;7490;63.708;20.368;2023-05-07T00:03:03;5.60;81.30
14798;DHT22;7490;63.708;20.368;2023-05-07T00:05:29;5.60;81.30
14798;DHT22;7490;63.708;20.368;2023-05-07T00:07:55;5.60;81.30
14798;DHT22;7490;63.708;20.368;2023-05-07T00:10:20;5.60;81.40
14798;DHT22;7490;63.708;20.368;2023-05-07T00:12:46;5.60;81.60
14798;DHT22;7490;63.708;20.368;2023-05-07T00:15:11;5.80;81.70
14798;DHT22;7490;63.708;20.368;2023-05-07T00:17:37;5.60;81.60
14798;DHT22;7490;63.708;20.368;2023-05-07T00:20:04;5.90;81.80
14798;DHT22;7490;63.708;20.368;2023-05-07T00:22:30;5.60;81.70
14798;DHT22;7490;63.708;20.368;2023-05-07T00:24:57;5.60;81.80
14798;DHT22;7490;63.708;20.368;2023-05-07T00:27:24;5.60;81.70
14798;DHT22;7490;63.708;20.368;2023-05-07T00:29:49;5.60;81.70
14798;DHT22;7490;63.708;20.368;2023-05-07T00:32:15;5.60;81.80
14798;DHT22;7490;63.708;20.368;2023-05-07T00:34:40;5.60;81.80
14798;DHT22;7490;63.708;20.368;2023-05-07T00:37:06;5.60;81.80
14798;DHT22;7490;63.708;20.368;2023-05-07T00:39:35;5.60;81.80
14798;DHT22;7490;63.708;20.368;2023-05-07T00:42:01;5.60;81.70
14798;DHT22;7490;63.708;20.368;2023-05-07T00:44:28;5.50;81.80
14798;DHT22;7490;63.708;20.368;2023-05-07T00:46:54;5.50;81.70
14798;DHT22;7490;63.708;20.368;2023-05-07T00:49:20;5.50;81.80
14798;DHT22;7490;63.708;20.368;2023-05-07T00:51:46;5.50;82.10
14798;DHT22;7490;63.708;20.368;2023-05-07T00:54:13;5.40;82.20
14798;DHT22;7490;63.708;20.368;2023-05-07T00:56:39;5.50;82.20
14798;DHT22;7490;63.708;20.368;2023-05-07T00:59:05;5.40;83.10
14798;DHT22;7490;63.708;20.368;2023-05-07T01:01:31;5.40;82.40
14798;DHT22;7490;63.708;20.368;2023-05-07T01:03:57;5.40;82.60
14798;DHT22;7490;63.708;20.368;2023-05-07T01:06:25;5.40;82.80
14798;DHT22;7490;63.708;20.368;2023-05-07T01:08:53;5.40;82.90
14798;DHT22;7490;63.708;20.368;2023-05-07T01:11:22;5.40;83.00
14798;DHT22;7490;63.708;20.368;2023-05-07T01:13:48;5.30;83.10
14798;DHT22;7490;63.708;20.368;2023-05-07T01:16:15;5.30;83.20
14798;DHT22;7490;63.708;20.368;2023-05-07T01:18:41;5.30;83.20
14798;DHT22;7490;63.708;20.368;2023-05-07T01:21:08;5.30;83.40
14798;DHT22;7490;63.708;20.368;2023-05-07T01:23:36;5.30;83.40
14798;DHT22;7490;63.708;20.368;2023-05-07T01:26:02;5.30;83.50
14798;DHT22;7490;63.708;20.368;2023-05-07T01:28:28;5.30;83.50
14798;DHT22;7490;63.708;20.368;2023-05-07T01:30:58;5.30;83.60
14798;DHT22;7490;63.708;20.368;2023-05-07T01:33:26;5.30;83.70
14798;DHT22;7490;63.708;20.368;2023-05-07T01:35:57;5.30;83.90
14798;DHT22;7490;63.708;20.368;2023-05-07T01:38:25;5.30;83.90
14798;DHT22;7490;63.708;20.368;2023-05-07T01:40:52;5.20;83.90
14798;DHT22;7490;63.708;20.368;2023-05-07T01:43:19;5.20;84.00
14798;DHT22;7490;63.708;20.368;2023-05-07T01:45:45;5.20;84.10
14798;DHT22;7490;63.708;20.368;2023-05-07T01:48:12;5.20;84.10
14798;DHT22;7490;63.708;20.368;2023-05-07T01:50:39;5.20;84.30
14798;DHT22;7490;63.708;20.368;2023-05-07T01:53:06;5.20;84.60
14798;DHT22;7490;63.708;20.368;2023-05-07T01:55:31;5.20;84.60
14798;DHT22;7490;63.708;20.368;2023-05-07T01:57:57;5.20;84.80
14798;DHT22;7490;63.708;20.368;2023-05-07T02:00:23;5.20;84.80
14798;DHT22;7490;63.708;20.368;2023-05-07T02:02:49;5.20;85.00
14798;DHT22;7490;63.708;20.368;2023-05-07T02:05:14;5.20;85.00
14798;DHT22;7490;63.708;20.368;2023-05-07T02:07:40;5.20;85.10
14798;DHT22;7490;63.708;20.368;2023-05-07T02:10:06;5.20;85.10
14798;DHT22;7490;63.708;20.368;2023-05-07T02:12:32;5.10;85.00
14798;DHT22;7490;63.708;20.368;2023-05-07T02:14:58;5.10;85.10
14798;DHT22;7490;63.708;20.368;2023-05-07T02:17:23;5.20;85.30
14798;DHT22;7490;63.708;20.368;2023-05-07T02:19:49;5.20;85.30
14798;DHT22;7490;63.708;20.368;2023-05-07T02:22:14;5.40;85.60
14798;DHT22;7490;63.708;20.368;2023-05-07T02:24:40;5.20;85.50
14798;DHT22;7490;63.708;20.368;2023-05-07T02:27:06;5.20;85.50
14798;DHT22;7490;63.708;20.368;2023-05-07T02:29:32;5.20;85.50
14798;DHT22;7490;63.708;20.368;2023-05-07T02:31:57;5.20;85.60
14798;DHT22;7490;63.708;20.368;2023-05-07T02:34:23;5.30;85.90
14798;DHT22;7490;63.708;20.368;2023-05-07T02:36:49;5.30;85.90
14798;DHT22;7490;63.708;20.368;2023-05-07T02:39:14;5.30;86.00
14798;DHT22;7490;63.708;20.368;2023-05-07T02:41:40;5.30;86.00
14798;DHT22;7490;63.708;20.368;2023-05-07T02:44:06;5.40;86.10
14798;DHT22;7490;63.708;20.368;2023-05-07T02:46:32;5.40;86.20
14798;DHT22;7490;63.708;20.368;2023-05-07T02:48:57;5.50;86.30
14798;DHT22;7490;63.708;20.368;2023-05-07T02:51:23;5.60;86.90
14798;DHT22;7490;63.708;20.368;2023-05-07T02:53:49;5.90;88.20
14798;DHT22;7490;63.708;20.368;2023-05-07T02:56:15;6.30;88.80
14798;DHT22;7490;63.708;20.368;2023-05-07T02:58:40;6.70;88.80
14798;DHT22;7490;63.708;20.368;2023-05-07T03:01:08;7.00;88.40
14798;DHT22;7490;63.708;20.368;2023-05-07T03:03:34;7.30;88.40
14798;DHT22;7490;63.708;20.368;2023-05-07T03:06:00;7.60;88.10
14798;DHT22;7490;63.708;20.368;2023-05-07T03:08:26;7.90;87.40
14798;DHT22;7490;63.708;20.368;2023-05-07T03:10:52;8.10;86.80
14798;DHT22;7490;63.708;20.368;2023-05-07T03:13:17;8.40;86.70
14798;DHT22;7490;63.708;20.368;2023-05-07T03:15:43;8.80;86.40
14798;DHT22;7490;63.708;20.368;2023-05-07T03:18:08;9.20;85.80
14798;DHT22;7490;63.708;20.368;2023-05-07T03:20:34;9.60;85.10
14798;DHT22;7490;63.708;20.368;2023-05-07T03:23:01;10.00;84.30
14798;DHT22;7490;63.708;20.368;2023-05-07T03:25:27;10.50;83.20
14798;DHT22;7490;63.708;20.368;2023-05-07T03:27:53;10.90;82.00
14798;DHT22;7490;63.708;20.368;2023-05-07T03:30:19;11.30;80.70
14798;DHT22;7490;63.708;20.368;2023-05-07T03:32:45;11.70;79.80
14798;DHT22;7490;63.708;20.368;2023-05-07T03:35:11;12.10;78.50
14798;DHT22;7490;63.708;20.368;2023-05-07T03:37:38;12.40;77.20
14798;DHT22;7490;63.708;20.368;2023-05-07T03:40:04;12.70;75.90
14798;DHT22;7490;63.708;20.368;2023-05-07T03:42:30;12.80;74.90
14798;DHT22;7490;63.708;20.368;2023-05-07T03:44:56;13.10;74.00
14798;DHT22;7490;63.708;20.368;2023-05-07T03:47:21;13.20;73.70
14798;DHT22;7490;63.708;20.368;2023-05-07T03:49:47;13.40;72.50
14798;DHT22;7490;63.708;20.368;2023-05-07T03:52:14;13.60;71.70
14798;DHT22;7490;63.708;20.368;2023-05-07T03:54:40;13.80;71.10
14798;DHT22;7490;63.708;20.368;2023-05-07T03:57:05;14.00;70.20
14798;DHT22;7490;63.708;20.368;2023-05-07T03:59:31;14.30;69.60
14798;DHT22;7490;63.708;20.368;2023-05-07T04:01:56;14.60;68.70
14798;DHT22;7490;63.708;20.368;2023-05-07T04:04:22;14.80;67.60
14798;DHT22;7490;63.708;20.368;2023-05-07T04:06:48;15.10;66.90
14798;DHT22;7490;63.708;20.368;2023-05-07T04:09:13;15.30;65.90
14798;DHT22;7490;63.708;20.368;2023-05-07T04:11:39;15.60;65.00
14798;DHT22;7490;63.708;20.368;2023-05-07T04:14:05;15.80;63.70
14798;DHT22;7490;63.708;20.368;2023-05-07T04:16:31;16.00;62.80
14798;DHT22;7490;63.708;20.368;2023-05-07T04:18:57;16.20;61.80
14798;DHT22;7490;63.708;20.368;2023-05-07T04:21:22;16.30;60.90
14798;DHT22;7490;63.708;20.368;2023-05-07T04:23:48;16.40;59.90
14798;DHT22;7490;63.708;20.368;2023-05-07T04:26:15;16.40;59.50
14798;DHT22;7490;63.708;20.368;2023-05-07T04:28:41;16.50;59.10
14798;DHT22;7490;63.708;20.368;2023-05-07T04:31:07;16.50;58.90
14798;DHT22;7490;63.708;20.368;2023-05-07T04:33:33;16.50;58.70
14798;DHT22;7490;63.708;20.368;2023-05-07T04:36:03;16.50;58.40
14798;DHT22;7490;63.708;20.368;2023-05-07T04:38:30;16.60;58.20
14798;DHT22;7490;63.708;20.368;2023-05-07T04:40:57;16.60;57.90
14798;DHT22;7490;63.708;20.368;2023-05-07T04:43:23;16.60;57.70
14798;DHT22;7490;63.708;20.368;2023-05-07T04:45:51;16.50;57.70
14798;DHT22;7490;63.708;20.368;2023-05-07T04:48:17;16.50;57.60
14798;DHT22;7490;63.708;20.368;2023-05-07T04:50:46;16.40;57.50
14798;DHT22;7490;63.708;20.368;2023-05-07T04:53:12;16.50;57.80
14798;DHT22;7490;63.708;20.368;2023-05-07T04:55:38;16.80;57.70
14798;DHT22;7490;63.708;20.368;2023-05-07T04:58:03;17.10;57.00
14798;DHT22;7490;63.708;20.368;2023-05-07T05:00:30;17.40;56.50
14798;DHT22;7490;63.708;20.368;2023-05-07T05:02:56;17.60;55.50
14798;DHT22;7490;63.708;20.368;2023-05-07T05:05:21;17.60;55.30
14798;DHT22;7490;63.708;20.368;2023-05-07T05:07:47;17.60;55.30
14798;DHT22;7490;63.708;20.368;2023-05-07T05:10:13;17.60;54.80
14798;DHT22;7490;63.708;20.368;2023-05-07T05:12:38;17.60;54.80
14798;DHT22;7490;63.708;20.368;2023-05-07T05:15:05;17.60;54.50
14798;DHT22;7490;63.708;20.368;2023-05-07T05:17:30;17.70;54.40
14798;DHT22;7490;63.708;20.368;2023-05-07T05:19:56;17.70;54.10
14798;DHT22;7490;63.708;20.368;2023-05-07T05:22:22;17.70;54.10
14798;DHT22;7490;63.708;20.368;2023-05-07T05:24:47;17.70;53.90
14798;DHT22;7490;63.708;20.368;2023-05-07T05:27:13;17.70;54.00
14798;DHT22;7490;63.708;20.368;2023-05-07T05:29:38;18.00;54.00
14798;DHT22;7490;63.708;20.368;2023-05-07T05:32:04;18.40;53.30
14798;DHT22;7490;63.708;20.368;2023-05-07T05:34:30;18.90;52.70
14798;DHT22;7490;63.708;20.368;2023-05-07T05:36:55;19.20;51.70
14798;DHT22;7490;63.708;20.368;2023-05-07T05:39:21;19.60;51.10
14798;DHT22;7490;63.708;20.368;2023-05-07T05:41:48;20.00;50.40
14798;DHT22;7490;63.708;20.368;2023-05-07T05:44:14;20.20;49.60
14798;DHT22;7490;63.708;20.368;2023-05-07T05:46:39;20.20;49.10
14798;DHT22;7490;63.708;20.368;2023-05-07T05:49:05;20.10;48.70
14798;DHT22;7490;63.708;20.368;2023-05-07T05:51:31;19.80;48.40
14798;DHT22;7490;63.708;20.368;2023-05-07T05:53:57;19.60;48.80
14798;DHT22;7490;63.708;20.368;2023-05-07T05:56:22;19.30;48.90
14798;DHT22;7490;63.708;20.368;2023-05-07T05:58:48;19.00;49.60
14798;DHT22;7490;63.708;20.368;2023-05-07T06:01:13;18.80;49.70
14798;DHT22;7490;63.708;20.368;2023-05-07T06:03:39;18.60;50.00
14798;DHT22;7490;63.708;20.368;2023-05-07T06:06:05;18.50;50.00
14798;DHT22;7490;63.708;20.368;2023-05-07T06:08:31;18.50;50.50
14798;DHT22;7490;63.708;20.368;2023-05-07T06:10:57;18.70;50.20
14798;DHT22;7490;63.708;20.368;2023-05-07T06:13:22;19.00;50.00
14798;DHT22;7490;63.708;20.368;2023-05-07T06:15:49;19.60;49.80
14798;DHT22;7490;63.708;20.368;2023-05-07T06:18:15;20.30;48.80
14798;DHT22;7490;63.708;20.368;2023-05-07T06:20:40;20.70;47.70
14798;DHT22;7490;63.708;20.368;2023-05-07T06:23:06;20.90;47.70
14798;DHT22;7490;63.708;20.368;2023-05-07T06:25:31;21.60;47.90
14798;DHT22;7490;63.708;20.368;2023-05-07T06:27:57;22.40;45.80
14798;DHT22;7490;63.708;20.368;2023-05-07T06:30:23;22.70;44.00
14798;DHT22;7490;63.708;20.368;2023-05-07T06:32:48;22.60;43.70
14798;DHT22;7490;63.708;20.368;2023-05-07T06:35:14;22.40;43.70
14798;DHT22;7490;63.708;20.368;2023-05-07T06:37:41;22.30;43.60
14798;DHT22;7490;63.708;20.368;2023-05-07T06:40:10;22.60;43.30
14798;DHT22;7490;63.708;20.368;2023-05-07T06:42:36;22.90;42.90
14798;DHT22;7490;63.708;20.368;2023-05-07T06:45:03;23.10;42.20
14798;DHT22;7490;63.708;20.368;2023-05-07T06:47:29;23.00;41.80
14798;DHT22;7490;63.708;20.368;2023-05-07T06:49:55;23.10;42.00
14798;DHT22;7490;63.708;20.368;2023-05-07T06:52:20;23.30;41.80
14798;DHT22;7490;63.708;20.368;2023-05-07T06:54:46;23.60;41.10
14798;DHT22;7490;63.708;20.368;2023-05-07T06:57:11;24.00;40.50
14798;DHT22;7490;63.708;20.368;2023-05-07T06:59:37;24.10;39.90
14798;DHT22;7490;63.708;20.368;2023-05-07T07:02:03;23.70;39.90
14798;DHT22;7490;63.708;20.368;2023-05-07T07:04:28;23.60;40.50
14798;DHT22;7490;63.708;20.368;2023-05-07T07:06:54;23.90;40.50
14798;DHT22;7490;63.708;20.368;2023-05-07T07:09:19;24.40;40.10
14798;DHT22;7490;63.708;20.368;2023-05-07T07:11:45;25.00;39.40
14798;DHT22;7490;63.708;20.368;2023-05-07T07:14:11;25.30;38.40
14798;DHT22;7490;63.708;20.368;2023-05-07T07:16:36;25.30;38.00
14798;DHT22;7490;63.708;20.368;2023-05-07T07:19:02;25.40;38.00
14798;DHT22;7490;63.708;20.368;2023-05-07T07:21:28;25.60;37.50
14798;DHT22;7490;63.708;20.368;2023-05-07T07:23:53;25.70;37.20
14798;DHT22;7490;63.708;20.368;2023-05-07T07:26:19;25.60;36.90
14798;DHT22;7490;63.708;20.368;2023-05-07T07:28:47;25.40;36.80
14798;DHT22;7490;63.708;20.368;2023-05-07T07:31:14;25.30;36.70
14798;DHT22;7490;63.708;20.368;2023-05-07T07:33:40;25.10;36.80
14798;DHT22;7490;63.708;20.368;2023-05-07T07:36:06;25.10;36.90
14798;DHT22;7490;63.708;20.368;2023-05-07T07:38:32;25.00;37.00
14798;DHT22;7490;63.708;20.368;2023-05-07T07:40:58;25.10;37.00
14798;DHT22;7490;63.708;20.368;2023-05-07T07:43:24;25.00;36.90
14798;DHT22;7490;63.708;20.368;2023-05-07T07:45:49;24.80;37.30
14798;DHT22;7490;63.708;20.368;2023-05-07T07:48:15;24.80;38.10
14798;DHT22;7490;63.708;20.368;2023-05-07T07:50:41;24.90;37.30
14798;DHT22;7490;63.708;20.368;2023-05-07T07:53:07;24.80;37.10
14798;DHT22;7490;63.708;20.368;2023-05-07T07:55:34;24.80;37.30
14798;DHT22;7490;63.708;20.368;2023-05-07T07:58:03;24.80;37.20
14798;DHT22;7490;63.708;20.368;2023-05-07T08:00:28;24.70;37.20
14798;DHT22;7490;63.708;20.368;2023-05-07T08:02:54;24.30;37.30
14798;DHT22;7490;63.708;20.368;2023-05-07T08:05:20;24.20;37.90
14798;DHT22;7490;63.708;20.368;2023-05-07T08:07:45;24.20;37.80
14798;DHT22;7490;63.708;20.368;2023-05-07T08:10:17;24.20;37.80
14798;DHT22;7490;63.708;20.368;2023-05-07T08:12:49;24.30;37.70
14798;DHT22;7490;63.708;20.368;2023-05-07T08:15:15;24.20;37.40
14798;DHT22;7490;63.708;20.368;2023-05-07T08:17:41;24.10;37.50
14798;DHT22;7490;63.708;20.368;2023-05-07T08:20:07;23.80;37.30
14798;DHT22;7490;63.708;20.368;2023-05-07T08:22:34;23.60;38.00
14798;DHT22;7490;63.708;20.368;2023-05-07T08:25:00;23.60;38.10
14798;DHT22;7490;63.708;20.368;2023-05-07T08:27:26;23.70;37.90
14798;DHT22;7490;63.708;20.368;2023-05-07T08:29:52;23.80;37.80
14798;DHT22;7490;63.708;20.368;2023-05-07T08:32:17;23.90;37.50
14798;DHT22;7490;63.708;20.368;2023-05-07T08:34:43;23.80;37.50
14798;DHT22;7490;63.708;20.368;2023-05-07T08:37:09;23.90;37.80
14798;DHT22;7490;63.708;20.368;2023-05-07T08:39:34;23.90;37.80
14798;DHT22;7490;63.708;20.368;2023-05-07T08:42:01;23.90;37.80
14798;DHT22;7490;63.708;20.368;2023-05-07T08:44:33;24.00;37.70
14798;DHT22;7490;63.708;20.368;2023-05-07T08:47:01;23.80;37.70
14798;DHT22;7490;63.708;20.368;2023-05-07T08:49:27;23.80;38.20
14798;DHT22;7490;63.708;20.368;2023-05-07T08:51:53;23.90;38.20
14798;DHT22;7490;63.708;20.368;2023-05-07T08:54:20;24.00;37.90
14798;DHT22;7490;63.708;20.368;2023-05-07T08:56:47;24.10;37.80
14798;DHT22;7490;63.708;20.368;2023-05-07T08:59:13;24.10;37.60
14798;DHT22;7490;63.708;20.368;2023-05-07T09:01:38;24.10;37.30
14798;DHT22;7490;63.708;20.368;2023-05-07T09:04:04;23.80;37.00
14798;DHT22;7490;63.708;20.368;2023-05-07T09:06:31;23.40;37.20
14798;DHT22;7490;63.708;20.368;2023-05-07T09:08:56;23.00;37.60
14798;DHT22;7490;63.708;20.368;2023-05-07T09:11:24;22.60;38.20
14798;DHT22;7490;63.708;20.368;2023-05-07T09:13:56;22.10;38.80
14798;DHT22;7490;63.708;20.368;2023-05-07T09:16:23;21.70;39.90
14798;DHT22;7490;63.708;20.368;2023-05-07T09:18:53;21.60;40.40
14798;DHT22;7490;63.708;20.368;2023-05-07T09:21:20;21.80;40.40
14798;DHT22;7490;63.708;20.368;2023-05-07T09:23:51;21.80;40.20
14798;DHT22;7490;63.708;20.368;2023-05-07T09:26:18;21.70;40.00
14798;DHT22;7490;63.708;20.368;2023-05-07T09:28:46;21.70;40.40
14798;DHT22;7490;63.708;20.368;2023-05-07T09:31:12;21.70;40.30
14798;DHT22;7490;63.708;20.368;2023-05-07T09:33:38;21.70;40.50
14798;DHT22;7490;63.708;20.368;2023-05-07T09:36:06;21.70;40.70
14798;DHT22;7490;63.708;20.368;2023-05-07T09:38:33;21.70;40.40
14798;DHT22;7490;63.708;20.368;2023-05-07T09:41:12;21.70;40.60
14798;DHT22;7490;63.708;20.368;2023-05-07T09:43:39;21.80;40.70
14798;DHT22;7490;63.708;20.368;2023-05-07T09:46:11;22.00;40.70
14798;DHT22;7490;63.708;20.368;2023-05-07T09:48:39;22.10;40.40
14798;DHT22;7490;63.708;20.368;2023-05-07T09:51:11;22.10;40.40
14798;DHT22;7490;63.708;20.368;2023-05-07T09:53:39;21.90;40.20
14798;DHT22;7490;63.708;20.368;2023-05-07T09:56:06;21.50;40.20
14798;DHT22;7490;63.708;20.368;2023-05-07T09:58:33;21.10;41.00
14798;DHT22;7490;63.708;20.368;2023-05-07T10:01:02;20.90;41.60
14798;DHT22;7490;63.708;20.368;2023-05-07T10:03:29;20.90;41.80
14798;DHT22;7490;63.708;20.368;2023-05-07T10:05:58;21.00;41.90
14798;DHT22;7490;63.708;20.368;2023-05-07T10:08:24;21.20;41.70
14798;DHT22;7490;63.708;20.368;2023-05-07T10:10:50;21.30;41.70
14798;DHT22;7490;63.708;20.368;2023-05-07T10:13:17;21.50;41.20
14798;DHT22;7490;63.708;20.368;2023-05-07T10:15:43;21.50;40.90
14798;DHT22;7490;63.708;20.368;2023-05-07T10:18:10;21.30;40.80
14798;DHT22;7490;63.708;20.368;2023-05-07T10:20:37;21.10;41.00
14798;DHT22;7490;63.708;20.368;2023-05-07T10:23:04;20.80;41.50
14798;DHT22;7490;63.708;20.368;2023-05-07T10:25:32;20.70;42.30
14798;DHT22;7490;63.708;20.368;2023-05-07T10:28:03;20.80;42.50
14798;DHT22;7490;63.708;20.368;2023-05-07T10:33:02;20.90;41.90
14798;DHT22;7490;63.708;20.368;2023-05-07T10:35:37;20.90;42.10
14798;DHT22;7490;63.708;20.368;2023-05-07T10:38:04;20.90;42.00
14798;DHT22;7490;63.708;20.368;2023-05-07T10:40:31;20.70;41.90
14798;DHT22;7490;63.708;20.368;2023-05-07T10:42:59;20.30;42.20
14798;DHT22;7490;63.708;20.368;2023-05-07T10:45:27;19.90;42.60
14798;DHT22;7490;63.708;20.368;2023-05-07T10:48:10;19.40;42.90
14798;DHT22;7490;63.708;20.368;2023-05-07T10:50:37;18.90;43.90
14798;DHT22;7490;63.708;20.368;2023-05-07T10:55:49;18.10;45.50
14798;DHT22;7490;63.708;20.368;2023-05-07T11:00:49;18.10;46.00
14798;DHT22;7490;63.708;20.368;2023-05-07T11:03:15;18.20;46.30
14798;DHT22;7490;63.708;20.368;2023-05-07T11:05:41;18.40;45.90
14798;DHT22;7490;63.708;20.368;2023-05-07T11:08:08;18.40;45.80
14798;DHT22;7490;63.708;20.368;2023-05-07T11:10:53;18.20;45.60
14798;DHT22;7490;63.708;20.368;2023-05-07T11:13:43;17.60;46.00
14798;DHT22;7490;63.708;20.368;2023-05-07T11:16:19;16.80;47.10
14798;DHT22;7490;63.708;20.368;2023-05-07T11:18:49;16.20;48.60
14798;DHT22;7490;63.708;20.368;2023-05-07T11:23:59;15.40;50.40
14798;DHT22;7490;63.708;20.368;2023-05-07T11:26:27;15.10;50.80
14798;DHT22;7490;63.708;20.368;2023-05-07T11:28:53;14.80;51.30
14798;DHT22;7490;63.708;20.368;2023-05-07T11:31:24;14.50;52.70
14798;DHT22;7490;63.708;20.368;2023-05-07T11:33:51;14.30;52.80
14798;DHT22;7490;63.708;20.368;2023-05-07T11:36:18;14.20;53.00
14798;DHT22;7490;63.708;20.368;2023-05-07T11:38:45;14.20;53.50
14798;DHT22;7490;63.708;20.368;2023-05-07T11:41:10;14.10;53.50
14798;DHT22;7490;63.708;20.368;2023-05-07T11:43:36;13.90;53.60
14798;DHT22;7490;63.708;20.368;2023-05-07T11:46:09;13.70;54.00
14798;DHT22;7490;63.708;20.368;2023-05-07T11:48:36;13.60;54.50
14798;DHT22;7490;63.708;20.368;2023-05-07T11:51:03;13.40;54.60
14798;DHT22;7490;63.708;20.368;2023-05-07T11:53:40;13.30;55.00
14798;DHT22;7490;63.708;20.368;2023-05-07T11:56:07;13.10;55.40
14798;DHT22;7490;63.708;20.368;2023-05-07T11:58:32;13.10;55.50
14798;DHT22;7490;63.708;20.368;2023-05-07T12:00:58;13.00;55.70
14798;DHT22;7490;63.708;20.368;2023-05-07T12:03:24;12.90;56.00
14798;DHT22;7490;63.708;20.368;2023-05-07T12:05:49;12.80;56.40
14798;DHT22;7490;63.708;20.368;2023-05-07T12:08:16;12.70;56.50
14798;DHT22;7490;63.708;20.368;2023-05-07T12:10:43;12.70;56.80
14798;DHT22;7490;63.708;20.368;2023-05-07T12:13:20;12.70;56.90
14798;DHT22;7490;63.708;20.368;2023-05-07T12:15:46;12.60;57.10
14798;DHT22;7490;63.708;20.368;2023-05-07T12:18:12;12.70;57.00
14798;DHT22;7490;63.708;20.368;2023-05-07T12:20:39;12.70;56.90
14798;DHT22;7490;63.708;20.368;2023-05-07T12:23:05;12.70;56.60
14798;DHT22;7490;63.708;20.368;2023-05-07T12:25:38;12.60;56.80
14798;DHT22;7490;63.708;20.368;2023-05-07T12:28:04;12.50;57.20
14798;DHT22;7490;63.708;20.368;2023-05-07T12:30:39;12.60;57.20
14798;DHT22;7490;63.708;20.368;2023-05-07T12:33:06;12.50;57.20
14798;DHT22;7490;63.708;20.368;2023-05-07T12:35:36;12.40;57.30
14798;DHT22;7490;63.708;20.368;2023-05-07T12:38:14;12.40;57.40
14798;DHT22;7490;63.708;20.368;2023-05-07T12:40:44;12.40;57.60
14798;DHT22;7490;63.708;20.368;2023-05-07T12:45:43;12.30;57.70
14798;DHT22;7490;63.708;20.368;2023-05-07T12:48:10;12.30;57.80
14798;DHT22;7490;63.708;20.368;2023-05-07T12:50:36;12.30;58.80
14798;DHT22;7490;63.708;20.368;2023-05-07T12:53:06;12.40;58.00
14798;DHT22;7490;63.708;20.368;2023-05-07T12:55:41;12.20;57.70
14798;DHT22;7490;63.708;20.368;2023-05-07T12:58:07;12.00;57.90
14798;DHT22;7490;63.708;20.368;2023-05-07T13:00:35;11.90;58.20
14798;DHT22;7490;63.708;20.368;2023-05-07T13:03:00;11.70;58.60
14798;DHT22;7490;63.708;20.368;2023-05-07T13:05:26;11.50;58.90
14798;DHT22;7490;63.708;20.368;2023-05-07T13:07:55;11.50;59.20
14798;DHT22;7490;63.708;20.368;2023-05-07T13:10:22;11.50;59.50
14798;DHT22;7490;63.708;20.368;2023-05-07T13:12:48;11.40;59.50
14798;DHT22;7490;63.708;20.368;2023-05-07T13:15:14;11.40;59.50
14798;DHT22;7490;63.708;20.368;2023-05-07T13:17:40;11.40;59.80
14798;DHT22;7490;63.708;20.368;2023-05-07T13:20:06;11.20;59.80
14798;DHT22;7490;63.708;20.368;2023-05-07T13:22:33;11.20;60.10
14798;DHT22;7490;63.708;20.368;2023-05-07T13:24:59;11.20;60.60
14798;DHT22;7490;63.708;20.368;2023-05-07T13:27:25;11.20;60.90
14798;DHT22;7490;63.708;20.368;2023-05-07T13:29:51;11.30;61.20
14798;DHT22;7490;63.708;20.368;2023-05-07T13:32:17;11.40;61.20
14798;DHT22;7490;63.708;20.368;2023-05-07T13:34:42;11.40;61.30
14798;DHT22;7490;63.708;20.368;2023-05-07T13:37:08;11.50;61.10
14798;DHT22;7490;63.708;20.368;2023-05-07T13:39:34;11.50;61.10
14798;DHT22;7490;63.708;20.368;2023-05-07T13:41:59;11.50;61.20
14798;DHT22;7490;63.708;20.368;2023-05-07T13:44:26;11.40;61.30
14798;DHT22;7490;63.708;20.368;2023-05-07T13:46:52;11.30;61.30
14798;DHT22;7490;63.708;20.368;2023-05-07T13:49:17;11.30;61.40
14798;DHT22;7490;63.708;20.368;2023-05-07T13:51:43;11.20;61.50
14798;DHT22;7490;63.708;20.368;2023-05-07T13:54:08;11.10;61.60
14798;DHT22;7490;63.708;20.368;2023-05-07T13:56:34;11.00;61.90
14798;DHT22;7490;63.708;20.368;2023-05-07T13:59:00;10.90;62.20
14798;DHT22;7490;63.708;20.368;2023-05-07T14:01:27;10.80;62.50
14798;DHT22;7490;63.708;20.368;2023-05-07T14:03:52;10.80;62.80
14798;DHT22;7490;63.708;20.368;2023-05-07T14:06:18;10.80;63.10
14798;DHT22;7490;63.708;20.368;2023-05-07T14:08:44;10.80;63.30
14798;DHT22;7490;63.708;20.368;2023-05-07T14:11:09;10.90;63.40
14798;DHT22;7490;63.708;20.368;2023-05-07T14:13:35;10.80;63.50
14798;DHT22;7490;63.708;20.368;2023-05-07T14:16:00;10.80;63.80
14798;DHT22;7490;63.708;20.368;2023-05-07T14:18:26;10.80;63.70
14798;DHT22;7490;63.708;20.368;2023-05-07T14:20:54;10.80;63.70
14798;DHT22;7490;63.708;20.368;2023-05-07T14:23:20;10.80;63.70
14798;DHT22;7490;63.708;20.368;2023-05-07T14:25:50;10.80;63.90
14798;DHT22;7490;63.708;20.368;2023-05-07T14:28:16;10.70;63.90
14798;DHT22;7490;63.708;20.368;2023-05-07T14:30:42;10.70;65.00
14798;DHT22;7490;63.708;20.368;2023-05-07T14:33:07;10.70;64.40
14798;DHT22;7490;63.708;20.368;2023-05-07T14:35:33;10.80;64.50
14798;DHT22;7490;63.708;20.368;2023-05-07T14:37:59;10.70;64.20
14798;DHT22;7490;63.708;20.368;2023-05-07T14:40:25;10.70;64.30
14798;DHT22;7490;63.708;20.368;2023-05-07T14:42:50;10.60;64.40
14798;DHT22;7490;63.708;20.368;2023-05-07T14:45:16;10.50;64.60
14798;DHT22;7490;63.708;20.368;2023-05-07T14:47:42;10.50;64.80
14798;DHT22;7490;63.708;20.368;2023-05-07T14:50:08;10.40;64.80
14798;DHT22;7490;63.708;20.368;2023-05-07T14:52:33;10.40;65.00
14798;DHT22;7490;63.708;20.368;2023-05-07T14:54:59;10.30;65.20
14798;DHT22;7490;63.708;20.368;2023-05-07T14:57:25;10.20;65.40
14798;DHT22;7490;63.708;20.368;2023-05-07T14:59:51;10.00;65.60
14798;DHT22;7490;63.708;20.368;2023-05-07T15:02:16;10.00;65.90
14798;DHT22;7490;63.708;20.368;2023-05-07T15:04:42;9.90;66.30
14798;DHT22;7490;63.708;20.368;2023-05-07T15:07:14;9.90;66.60
14798;DHT22;7490;63.708;20.368;2023-05-07T15:09:41;9.80;66.90
14798;DHT22;7490;63.708;20.368;2023-05-07T15:12:07;9.80;67.00
14798;DHT22;7490;63.708;20.368;2023-05-07T15:14:33;9.80;67.20
14798;DHT22;7490;63.708;20.368;2023-05-07T15:16:58;9.80;67.30
14798;DHT22;7490;63.708;20.368;2023-05-07T15:19:24;9.80;67.40
14798;DHT22;7490;63.708;20.368;2023-05-07T15:21:54;9.80;67.50
14798;DHT22;7490;63.708;20.368;2023-05-07T15:24:22;9.90;67.50
14798;DHT22;7490;63.708;20.368;2023-05-07T15:26:48;9.90;67.50
14798;DHT22;7490;63.708;20.368;2023-05-07T15:29:13;9.90;67.40
14798;DHT22;7490;63.708;20.368;2023-05-07T15:31:39;10.00;67.40
14798;DHT22;7490;63.708;20.368;2023-05-07T15:34:05;10.00;67.40
14798;DHT22;7490;63.708;20.368;2023-05-07T15:36:30;10.00;67.30
14798;DHT22;7490;63.708;20.368;2023-05-07T15:38:56;10.10;67.20
14798;DHT22;7490;63.708;20.368;2023-05-07T15:41:22;10.10;67.30
14798;DHT22;7490;63.708;20.368;2023-05-07T15:43:50;10.10;67.10